Time,TemperatureF,DewpointF,PressureIn,WindDirection,WindDirectionDegrees,WindSpeedMPH,WindSpeedGustMPH,Humidity,HourlyPrecipIn,Conditions,Clouds,dailyrainin,SoftwareType,DateUTC
2013-04-29 00:08:00,58.2,13.5,29.86,NNE,33,1.0,1.0,17,0.00,,,0.00,Wunderground v.1.15,2013-04-29 06:08:00,
2013-04-29 00:13:00,57.7,11.7,29.86,ESE,103,1.0,1.0,16,0.00,,,0.00,Wunderground v.1.15,2013-04-29 06:13:00,
2013-04-29 00:23:00,57.7,11.7,29.86,ESE,115,0.0,1.0,16,0.00,,,0.00,Wunderground v.1.15,2013-04-29 06:23:00,
2013-04-29 00:28:00,57.4,12.9,29.86,ESE,118,0.0,0.0,17,0.00,,,0.00,Wunderground v.1.15,2013-04-29 06:28:00,
2013-04-29 00:38:00,56.3,13.3,29.86,SE,129,0.0,0.0,18,0.00,,,0.00,Wunderground v.1.15,2013-04-29 06:38:00,
2013-04-29 00:48:00,55.9,12.9,29.86,SE,124,0.0,0.0,18,0.00,,,0.00,Wunderground v.1.15,2013-04-29 06:48:00,
2013-04-29 00:58:00,55.7,12.8,29.86,East,99,0.0,0.0,18,0.00,,,0.00,Wunderground v.1.15,2013-04-29 06:58:00,
2013-04-29 01:08:00,55.7,14.0,29.86,ESE,113,0.0,0.0,19,0.00,,,0.00,Wunderground v.1.15,2013-04-29 07:08:00,
2013-04-29 01:13:00,55.7,12.8,29.86,ESE,121,0.0,0.0,18,0.00,,,0.00,Wunderground v.1.15,2013-04-29 07:13:00,
2013-04-29 01:23:00,55.1,12.3,29.86,ESE,118,0.0,0.0,18,0.00,,,0.00,Wunderground v.1.15,2013-04-29 07:23:00,
2013-04-29 01:33:00,54.7,13.2,29.85,ESE,116,0.0,0.0,19,0.00,,,0.00,Wunderground v.1.15,2013-04-29 07:33:00,
2013-04-29 01:43:00,54.2,12.8,29.85,ESE,115,0.0,0.0,19,0.00,,,0.00,Wunderground v.1.15,2013-04-29 07:43:00,
2013-04-29 01:48:00,54.1,12.7,29.85,ESE,115,0.0,0.0,19,0.00,,,0.00,Wunderground v.1.15,2013-04-29 07:48:00,
2013-04-29 01:53:00,54.0,13.8,29.85,ESE,114,0.0,0.0,20,0.00,,,0.00,Wunderground v.1.15,2013-04-29 07:53:00,
2013-04-29 01:58:00,53.7,13.5,29.84,ESE,115,0.0,0.0,20,0.00,,,0.00,Wunderground v.1.15,2013-04-29 07:58:00,
2013-04-29 02:08:00,53.2,14.2,29.84,SE,127,0.0,0.0,21,0.00,,,0.00,Wunderground v.1.15,2013-04-29 08:08:00,
2013-04-29 02:18:00,53.0,12.9,29.84,ESE,122,0.0,0.0,20,0.00,,,0.00,Wunderground v.1.15,2013-04-29 08:18:00,
2013-04-29 02:23:00,53.1,13.0,29.84,ESE,119,0.0,0.0,20,0.00,,,0.00,Wunderground v.1.15,2013-04-29 08:23:00,
2013-04-29 02:33:00,53.2,13.1,29.84,ESE,121,0.0,1.0,20,0.00,,,0.00,Wunderground v.1.15,2013-04-29 08:33:00,
2013-04-29 02:43:00,53.2,13.1,29.84,ESE,123,0.0,0.0,20,0.00,,,0.00,Wunderground v.1.15,2013-04-29 08:43:00,
2013-04-29 02:53:00,52.6,12.6,29.84,ESE,121,0.0,0.0,20,0.00,,,0.00,Wunderground v.1.15,2013-04-29 08:53:00,
2013-04-29 02:58:00,52.0,13.2,29.84,ESE,121,0.0,0.0,21,0.00,,,0.00,Wunderground v.1.15,2013-04-29 08:58:00,
2013-04-29 03:08:00,50.8,14.3,29.85,ESE,121,0.0,0.0,23,0.00,,,0.00,Wunderground v.1.15,2013-04-29 09:08:00,
2013-04-29 03:18:00,50.4,13.9,29.85,ESE,121,0.0,0.0,23,0.00,,,0.00,Wunderground v.1.15,2013-04-29 09:18:00,
2013-04-29 03:28:00,50.1,13.7,29.85,ESE,121,0.0,0.0,23,0.00,,,0.00,Wunderground v.1.15,2013-04-29 09:28:00,
2013-04-29 03:33:00,49.8,14.4,29.85,ESE,121,0.0,0.0,24,0.00,,,0.00,Wunderground v.1.15,2013-04-29 09:33:00,
2013-04-29 03:43:00,49.5,15.1,29.85,ESE,121,0.0,0.0,25,0.00,,,0.00,Wunderground v.1.15,2013-04-29 09:43:00,
2013-04-29 03:53:00,49.1,15.6,29.85,ESE,121,0.0,0.0,26,0.00,,,0.00,Wunderground v.1.15,2013-04-29 09:53:00,
2013-04-29 03:58:00,49.0,14.7,29.85,ESE,121,0.0,0.0,25,0.00,,,0.00,Wunderground v.1.15,2013-04-29 09:58:00,
2013-04-29 04:08:00,49.1,13.8,29.85,ESE,121,0.0,0.0,24,0.00,,,0.00,Wunderground v.1.15,2013-04-29 10:08:00,
2013-04-29 04:13:00,48.9,14.6,29.85,ESE,121,0.0,0.0,25,0.00,,,0.00,Wunderground v.1.15,2013-04-29 10:13:00,
2013-04-29 04:18:00,48.5,13.3,29.85,ESE,121,0.0,0.0,24,0.00,,,0.00,Wunderground v.1.15,2013-04-29 10:18:00,
2013-04-29 04:23:00,48.5,14.2,29.86,ESE,122,0.0,0.0,25,0.00,,,0.00,Wunderground v.1.15,2013-04-29 10:23:00,
2013-04-29 04:28:00,48.5,15.1,29.86,SE,124,0.0,0.0,26,0.00,,,0.00,Wunderground v.1.15,2013-04-29 10:28:00,
2013-04-29 04:38:00,48.1,14.8,29.86,SSE,159,0.0,0.0,26,0.00,,,0.00,Wunderground v.1.15,2013-04-29 10:38:00,
2013-04-29 04:48:00,48.0,14.7,29.86,SSE,159,0.0,0.0,26,0.00,,,0.00,Wunderground v.1.15,2013-04-29 10:48:00,
2013-04-29 04:53:00,48.2,15.7,29.86,SSE,158,0.0,0.0,27,0.00,,,0.00,Wunderground v.1.15,2013-04-29 10:53:00,
2013-04-29 04:58:00,48.1,14.8,29.86,SE,135,0.0,0.0,26,0.00,,,0.00,Wunderground v.1.15,2013-04-29 10:58:00,
2013-04-29 05:08:00,48.2,14.9,29.87,SE,136,0.0,0.0,26,0.00,,,0.00,Wunderground v.1.15,2013-04-29 11:08:00,
2013-04-29 05:18:00,48.4,15.0,29.87,ESE,119,0.0,1.0,26,0.00,,,0.00,Wunderground v.1.15,2013-04-29 11:18:00,
2013-04-29 05:28:00,48.2,15.7,29.87,ESE,121,0.0,0.0,27,0.00,,,0.00,Wunderground v.1.15,2013-04-29 11:28:00,
2013-04-29 05:38:00,48.0,16.4,29.87,ESE,121,0.0,0.0,28,0.00,,,0.00,Wunderground v.1.15,2013-04-29 11:38:00,
2013-04-29 05:43:00,47.9,17.1,29.87,ESE,115,0.0,1.0,29,0.00,,,0.00,Wunderground v.1.15,2013-04-29 11:43:00,
2013-04-29 05:48:00,48.0,17.2,29.87,ESE,115,0.0,0.0,29,0.00,,,0.00,Wunderground v.1.15,2013-04-29 11:48:00,
2013-04-29 05:58:00,48.0,18.0,29.87,ESE,114,0.0,0.0,30,0.00,,,0.00,Wunderground v.1.15,2013-04-29 11:58:00,
2013-04-29 06:08:00,47.2,17.3,29.87,ESE,115,0.0,0.0,30,0.00,,,0.00,Wunderground v.1.15,2013-04-29 12:08:00,
2013-04-29 06:18:00,46.9,16.3,29.87,ESE,115,0.0,0.0,29,0.00,,,0.00,Wunderground v.1.15,2013-04-29 12:18:00,
2013-04-29 06:23:00,46.9,17.0,29.87,ESE,115,0.0,0.0,30,0.00,,,0.00,Wunderground v.1.15,2013-04-29 12:23:00,
2013-04-29 06:33:00,46.7,16.9,29.87,ESE,114,0.0,0.0,30,0.00,,,0.00,Wunderground v.1.15,2013-04-29 12:33:00,
2013-04-29 06:43:00,46.8,17.0,29.88,ESE,115,0.0,0.0,30,0.00,,,0.00,Wunderground v.1.15,2013-04-29 12:43:00,
2013-04-29 06:48:00,46.9,17.0,29.88,ESE,115,0.0,0.0,30,0.00,,,0.00,Wunderground v.1.15,2013-04-29 12:48:00,
2013-04-29 06:58:00,47.4,19.0,29.88,ESE,115,0.0,0.0,32,0.00,,,0.00,Wunderground v.1.15,2013-04-29 12:58:00,
2013-04-29 07:08:00,47.9,19.4,29.88,ESE,115,0.0,0.0,32,0.00,,,0.00,Wunderground v.1.15,2013-04-29 13:08:00,
2013-04-29 07:13:00,48.6,21.5,29.88,ESE,115,0.0,0.0,34,0.00,,,0.00,Wunderground v.1.15,2013-04-29 13:13:00,
2013-04-29 07:23:00,51.1,19.9,29.89,ESE,118,0.0,0.0,29,0.00,,,0.00,Wunderground v.1.15,2013-04-29 13:23:00,
2013-04-29 07:33:00,52.2,20.9,29.89,ESE,118,0.0,0.0,29,0.00,,,0.00,Wunderground v.1.15,2013-04-29 13:33:00,
2013-04-29 07:38:00,52.2,21.7,29.89,ESE,118,0.0,0.0,30,0.00,,,0.00,Wunderground v.1.15,2013-04-29 13:38:00,
2013-04-29 07:43:00,52.4,21.0,29.89,ESE,118,0.0,0.0,29,0.00,,,0.00,Wunderground v.1.15,2013-04-29 13:43:00,
2013-04-29 07:53:00,53.6,21.2,29.89,South,177,0.0,0.0,28,0.00,,,0.00,Wunderground v.1.15,2013-04-29 13:53:00,
2013-04-29 07:58:00,54.8,22.3,29.89,South,178,0.0,0.0,28,0.00,,,0.00,Wunderground v.1.15,2013-04-29 13:58:00,
2013-04-29 08:08:00,56.3,18.9,29.89,SSE,152,0.0,0.0,23,0.00,,,0.00,Wunderground v.1.15,2013-04-29 14:08:00,
2013-04-29 08:18:00,58.0,14.7,29.89,SSE,165,1.0,1.0,18,0.00,,,0.00,Wunderground v.1.15,2013-04-29 14:18:00,
2013-04-29 08:23:00,58.8,14.0,29.89,SSE,148,1.0,1.0,17,0.00,,,0.00,Wunderground v.1.15,2013-04-29 14:23:00,
2013-04-29 08:33:00,59.7,14.8,29.89,SE,133,2.0,2.0,17,0.00,,,0.00,Wunderground v.1.15,2013-04-29 14:33:00,
2013-04-29 08:38:00,60.0,15.0,29.89,SE,133,1.0,1.0,17,0.00,,,0.00,Wunderground v.1.15,2013-04-29 14:38:00,
2013-04-29 08:48:00,60.9,14.3,29.89,SW,217,0.0,0.0,16,0.00,,,0.00,Wunderground v.1.15,2013-04-29 14:48:00,
2013-04-29 08:53:00,61.3,16.1,29.89,WNW,288,0.0,0.0,17,0.00,,,0.00,Wunderground v.1.15,2013-04-29 14:53:00,
2013-04-29 08:58:00,61.7,15.0,29.88,SW,222,0.0,0.0,16,0.00,,,0.00,Wunderground v.1.15,2013-04-29 14:58:00,
2013-04-29 09:08:00,62.6,12.7,29.88,SSE,154,2.0,3.0,14,0.00,,,0.00,Wunderground v.1.15,2013-04-29 15:08:00,
2013-04-29 09:13:00,63.1,13.1,29.88,SSW,210,1.0,3.0,14,0.00,,,0.00,Wunderground v.1.15,2013-04-29 15:13:00,
2013-04-29 09:23:00,64.2,12.3,29.88,West,277,1.0,2.0,13,0.00,,,0.00,Wunderground v.1.15,2013-04-29 15:23:00,
2013-04-29 09:28:00,64.8,12.7,29.88,SSW,195,1.0,1.0,13,0.00,,,0.00,Wunderground v.1.15,2013-04-29 15:28:00,
2013-04-29 09:33:00,65.9,13.6,29.88,WSW,242,1.0,1.0,13,0.00,,,0.00,Wunderground v.1.15,2013-04-29 15:33:00,
2013-04-29 09:43:00,66.9,14.4,29.88,WSW,249,1.0,2.0,13,0.00,,,0.00,Wunderground v.1.15,2013-04-29 15:43:00,
2013-04-29 09:48:00,67.8,13.3,29.88,WSW,257,2.0,2.0,12,0.00,,,0.00,Wunderground v.1.15,2013-04-29 15:48:00,
2013-04-29 09:58:00,69.0,14.2,29.87,ENE,74,1.0,1.0,12,0.00,,,0.00,Wunderground v.1.15,2013-04-29 15:58:00,
2013-04-29 10:08:00,69.9,10.8,29.87,ESE,114,2.0,2.0,10,0.00,,,0.00,Wunderground v.1.15,2013-04-29 16:08:00,
2013-04-29 10:18:00,70.6,8.9,29.87,SE,145,2.0,3.0,9,0.00,,,0.00,Wunderground v.1.15,2013-04-29 16:18:00,
2013-04-29 10:28:00,71.4,6.9,29.86,ESE,110,3.0,3.0,8,0.00,,,0.00,Wunderground v.1.15,2013-04-29 16:28:00,
2013-04-29 10:33:00,71.6,12.1,29.86,ESE,115,3.0,3.0,10,0.00,,,0.00,Wunderground v.1.15,2013-04-29 16:33:00,
2013-04-29 10:38:00,72.0,10.0,29.86,ESE,119,3.0,5.0,9,0.00,,,0.00,Wunderground v.1.15,2013-04-29 16:38:00,
2013-04-29 10:48:00,72.3,10.2,29.86,SE,141,3.0,6.0,9,0.00,,,0.00,Wunderground v.1.15,2013-04-29 16:48:00,
2013-04-29 10:53:00,72.4,10.3,29.86,WSW,239,4.0,6.0,9,0.00,,,0.00,Wunderground v.1.15,2013-04-29 16:53:00,
2013-04-29 10:58:00,72.7,7.9,29.86,South,186,4.0,5.0,8,0.00,,,0.00,Wunderground v.1.15,2013-04-29 16:58:00,
2013-04-29 11:08:00,73.4,11.1,29.86,SE,130,3.0,3.0,9,0.00,,,0.00,Wunderground v.1.15,2013-04-29 17:08:00,
2013-04-29 11:13:00,73.7,11.3,29.86,WSW,239,3.0,3.0,9,0.00,,,0.00,Wunderground v.1.15,2013-04-29 17:13:00,
2013-04-29 11:23:00,74.5,9.3,29.85,WSW,238,3.0,3.0,8,0.00,,,0.00,Wunderground v.1.15,2013-04-29 17:23:00,
2013-04-29 11:28:00,74.6,9.3,29.85,SSW,208,3.0,3.0,8,0.00,,,0.00,Wunderground v.1.15,2013-04-29 17:28:00,
2013-04-29 11:38:00,75.4,12.6,29.85,ESE,123,3.0,5.0,9,0.00,,,0.00,Wunderground v.1.15,2013-04-29 17:38:00,
2013-04-29 11:48:00,76.0,10.4,29.85,WSW,242,3.0,3.0,8,0.00,,,0.00,Wunderground v.1.15,2013-04-29 17:48:00,
2013-04-29 11:58:00,76.2,10.5,29.84,SSE,153,3.0,4.0,8,0.00,,,0.00,Wunderground v.1.15,2013-04-29 17:58:00,
2013-04-29 12:08:00,76.7,10.9,29.83,SW,221,3.0,5.0,8,0.00,,,0.00,Wunderground v.1.15,2013-04-29 18:08:00,
2013-04-29 12:13:00,76.7,10.9,29.83,ESE,115,3.0,5.0,8,0.00,,,0.00,Wunderground v.1.15,2013-04-29 18:13:00,
2013-04-29 12:23:00,77.0,11.1,29.82,SE,132,3.0,6.0,8,0.00,,,0.00,Wunderground v.1.15,2013-04-29 18:23:00,
2013-04-29 12:33:00,76.9,11.0,29.82,NNW,337,3.0,3.0,8,0.00,,,0.00,Wunderground v.1.15,2013-04-29 18:33:00,
2013-04-29 12:43:00,77.8,11.7,29.81,SSE,150,2.0,5.0,8,0.00,,,0.00,Wunderground v.1.15,2013-04-29 18:43:00,
2013-04-29 12:53:00,79.8,18.3,29.80,SSW,198,1.0,2.0,10,0.00,,,0.00,Wunderground v.1.15,2013-04-29 18:53:00,
2013-04-29 12:58:00,80.0,13.4,29.79,NW,315,2.0,2.0,8,0.00,,,0.00,Wunderground v.1.15,2013-04-29 18:58:00,
2013-04-29 13:08:00,80.3,16.3,29.79,ESE,107,2.0,2.0,9,0.00,,,0.00,Wunderground v.1.15,2013-04-29 19:08:00,
2013-04-29 13:18:00,81.1,14.2,29.78,ESE,115,2.0,2.0,8,0.00,,,0.00,Wunderground v.1.15,2013-04-29 19:18:00,
2013-04-29 13:23:00,81.9,14.8,29.78,SE,131,2.0,2.0,8,0.00,,,0.00,Wunderground v.1.15,2013-04-29 19:23:00,
2013-04-29 13:28:00,81.7,14.6,29.77,West,266,2.0,2.0,8,0.00,,,0.00,Wunderground v.1.15,2013-04-29 19:28:00,
2013-04-29 13:33:00,81.1,11.1,29.77,ENE,72,3.0,3.0,7,0.00,,,0.00,Wunderground v.1.15,2013-04-29 19:33:00,
2013-04-29 13:43:00,80.5,10.7,29.76,NW,316,4.0,5.0,7,0.00,,,0.00,Wunderground v.1.15,2013-04-29 19:43:00,
2013-04-29 13:53:00,80.4,13.7,29.76,SE,135,3.0,6.0,8,0.00,,,0.00,Wunderground v.1.15,2013-04-29 19:53:00,
2013-04-29 13:58:00,80.7,13.9,29.75,SSE,148,3.0,3.0,8,0.00,,,0.00,Wunderground v.1.15,2013-04-29 19:58:00,
2013-04-29 14:08:00,81.9,11.7,29.74,SSW,205,4.0,4.0,7,0.00,,,0.00,Wunderground v.1.15,2013-04-29 20:08:00,
2013-04-29 14:13:00,82.0,14.8,29.74,SSE,155,3.0,4.0,8,0.00,,,0.00,Wunderground v.1.15,2013-04-29 20:13:00,
2013-04-29 14:18:00,81.9,11.7,29.73,NNE,26,3.0,4.0,7,0.00,,,0.00,Wunderground v.1.15,2013-04-29 20:18:00,
2013-04-29 14:23:00,81.6,14.5,29.73,NE,46,4.0,5.0,8,0.00,,,0.00,Wunderground v.1.15,2013-04-29 20:23:00,
2013-04-29 14:33:00,82.3,15.1,29.72,West,263,3.0,5.0,8,0.00,,,0.00,Wunderground v.1.15,2013-04-29 20:33:00,
2013-04-29 14:43:00,82.7,12.3,29.72,WNW,295,5.0,9.0,7,0.00,,,0.00,Wunderground v.1.15,2013-04-29 20:43:00,
2013-04-29 14:48:00,83.5,12.9,29.72,SSE,166,5.0,5.0,7,0.00,,,0.00,Wunderground v.1.15,2013-04-29 20:48:00,
2013-04-29 14:58:00,82.6,12.2,29.71,SSW,194,5.0,5.0,7,0.00,,,0.00,Wunderground v.1.15,2013-04-29 20:58:00,
2013-04-29 15:08:00,82.5,12.2,29.70,West,267,5.0,5.0,7,0.00,,,0.00,Wunderground v.1.15,2013-04-29 21:08:00,
2013-04-29 15:18:00,83.4,9.4,29.69,SW,231,5.0,6.0,6,0.00,,,0.00,Wunderground v.1.15,2013-04-29 21:18:00,
2013-04-29 15:23:00,83.6,13.0,29.69,WNW,292,6.0,8.0,7,0.00,,,0.00,Wunderground v.1.15,2013-04-29 21:23:00,
2013-04-29 15:33:00,83.5,12.9,29.68,WSW,240,4.0,7.0,7,0.00,,,0.00,Wunderground v.1.15,2013-04-29 21:33:00,
2013-04-29 15:43:00,83.8,13.1,29.68,North,349,6.0,6.0,7,0.00,,,0.00,Wunderground v.1.15,2013-04-29 21:43:00,
2013-04-29 15:53:00,84.4,10.1,29.67,South,172,4.0,4.0,6,0.00,,,0.00,Wunderground v.1.15,2013-04-29 21:53:00,
2013-04-29 15:58:00,84.6,13.7,29.67,WNW,302,4.0,13.0,7,0.00,,,0.00,Wunderground v.1.15,2013-04-29 21:58:00,
2013-04-29 16:08:00,84.5,10.2,29.66,SSW,210,6.0,6.0,6,0.00,,,0.00,Wunderground v.1.15,2013-04-29 22:08:00,
2013-04-29 16:13:00,84.3,10.0,29.66,NW,311,5.0,6.0,6,0.00,,,0.00,Wunderground v.1.15,2013-04-29 22:13:00,
2013-04-29 16:18:00,84.1,13.3,29.66,NW,318,5.0,9.0,7,0.00,,,0.00,Wunderground v.1.15,2013-04-29 22:18:00,
2013-04-29 16:23:00,84.0,9.8,29.66,WSW,239,4.0,9.0,6,0.00,,,0.00,Wunderground v.1.15,2013-04-29 22:23:00,
2013-04-29 16:33:00,84.3,10.0,29.65,WSW,247,6.0,13.0,6,0.00,,,0.00,Wunderground v.1.15,2013-04-29 22:33:00,
2013-04-29 16:43:00,84.6,13.7,29.65,WSW,253,5.0,9.0,7,0.00,,,0.00,Wunderground v.1.15,2013-04-29 22:43:00,
2013-04-29 16:48:00,84.6,13.7,29.64,WSW,242,5.0,5.0,7,0.00,,,0.00,Wunderground v.1.15,2013-04-29 22:48:00,
2013-04-29 16:53:00,84.1,13.3,29.64,WSW,245,6.0,13.0,7,0.00,,,0.00,Wunderground v.1.15,2013-04-29 22:53:00,
2013-04-29 16:58:00,84.3,13.5,29.64,WNW,293,5.0,8.0,7,0.00,,,0.00,Wunderground v.1.15,2013-04-29 22:58:00,
2013-04-29 17:08:00,84.3,13.5,29.64,WSW,239,5.0,5.0,7,0.00,,,0.00,Wunderground v.1.15,2013-04-29 23:08:00,
2013-04-29 17:13:00,83.9,13.2,29.64,WSW,253,6.0,6.0,7,0.00,,,0.00,Wunderground v.1.15,2013-04-29 23:13:00,
2013-04-29 17:23:00,84.7,13.8,29.63,SW,232,4.0,7.0,7,0.00,,,0.00,Wunderground v.1.15,2013-04-29 23:23:00,
2013-04-29 17:28:00,85.0,10.5,29.63,WSW,239,4.0,6.0,6,0.00,,,0.00,Wunderground v.1.15,2013-04-29 23:28:00,
2013-04-29 17:33:00,84.8,10.4,29.63,WSW,255,5.0,10.0,6,0.00,,,0.00,Wunderground v.1.15,2013-04-29 23:33:00,
2013-04-29 17:43:00,83.8,13.1,29.63,NNE,27,7.0,7.0,7,0.00,,,0.00,Wunderground v.1.15,2013-04-29 23:43:00,
2013-04-29 17:53:00,82.5,12.2,29.63,WSW,252,6.0,8.0,7,0.00,,,0.00,Wunderground v.1.15,2013-04-29 23:53:00,
2013-04-29 17:58:00,82.1,11.9,29.63,SSW,200,6.0,6.0,7,0.00,,,0.00,Wunderground v.1.15,2013-04-29 23:58:00,
2013-04-29 18:08:00,81.4,14.4,29.63,WSW,245,4.0,4.0,8,0.00,,,0.00,Wunderground v.1.15,2013-04-30 00:08:00,
2013-04-29 18:13:00,81.0,14.1,29.63,SW,232,4.0,4.0,8,0.00,,,0.00,Wunderground v.1.15,2013-04-30 00:13:00,
2013-04-29 18:23:00,80.9,14.0,29.63,WSW,250,3.0,5.0,8,0.00,,,0.00,Wunderground v.1.15,2013-04-30 00:23:00,
2013-04-29 18:28:00,80.8,14.0,29.63,WNW,288,3.0,5.0,8,0.00,,,0.00,Wunderground v.1.15,2013-04-30 00:28:00,
2013-04-29 18:33:00,81.2,14.2,29.63,WSW,237,3.0,5.0,8,0.00,,,0.00,Wunderground v.1.15,2013-04-30 00:33:00,
2013-04-29 18:38:00,81.7,14.6,29.63,West,263,2.0,5.0,8,0.00,,,0.00,Wunderground v.1.15,2013-04-30 00:38:00,
2013-04-29 18:48:00,82.0,14.8,29.63,SSE,160,4.0,4.0,8,0.00,,,0.00,Wunderground v.1.15,2013-04-30 00:48:00,
2013-04-29 18:58:00,81.0,16.8,29.63,SW,219,2.0,2.0,9,0.00,,,0.00,Wunderground v.1.15,2013-04-30 00:58:00,
2013-04-29 19:08:00,81.7,14.6,29.63,WSW,258,2.0,3.0,8,0.00,,,0.00,Wunderground v.1.15,2013-04-30 01:08:00,
2013-04-29 19:13:00,81.6,14.5,29.62,WSW,255,2.0,3.0,8,0.00,,,0.00,Wunderground v.1.15,2013-04-30 01:13:00,
2013-04-29 19:18:00,81.1,16.9,29.62,WSW,248,1.0,2.0,9,0.00,,,0.00,Wunderground v.1.15,2013-04-30 01:18:00,
2013-04-29 19:28:00,80.3,18.7,29.62,SSW,210,2.0,2.0,10,0.00,,,0.00,Wunderground v.1.15,2013-04-30 01:28:00,
2013-04-29 19:38:00,79.9,13.3,29.62,West,274,1.0,1.0,8,0.00,,,0.00,Wunderground v.1.15,2013-04-30 01:38:00,
2013-04-29 19:43:00,79.6,15.8,29.62,West,259,1.0,1.0,9,0.00,,,0.00,Wunderground v.1.15,2013-04-30 01:43:00,
2013-04-29 19:53:00,79.0,15.3,29.62,West,269,1.0,3.0,9,0.00,,,0.00,Wunderground v.1.15,2013-04-30 01:53:00,
2013-04-29 19:58:00,79.0,15.3,29.63,WNW,283,2.0,2.0,9,0.00,,,0.00,Wunderground v.1.15,2013-04-30 01:58:00,
2013-04-29 20:08:00,78.5,14.9,29.63,WSW,239,1.0,3.0,9,0.00,,,0.00,Wunderground v.1.15,2013-04-30 02:08:00,
2013-04-29 20:18:00,78.3,14.8,29.63,NNE,21,2.0,4.0,9,0.00,,,0.00,Wunderground v.1.15,2013-04-30 02:18:00,
2013-04-29 20:28:00,77.8,14.4,29.63,West,259,2.0,2.0,9,0.00,,,0.00,Wunderground v.1.15,2013-04-30 02:28:00,
2013-04-29 20:38:00,77.1,13.9,29.64,NW,304,2.0,2.0,9,0.00,,,0.00,Wunderground v.1.15,2013-04-30 02:38:00,
2013-04-29 20:43:00,76.7,13.6,29.64,WNW,283,2.0,2.0,9,0.00,,,0.00,Wunderground v.1.15,2013-04-30 02:43:00,
2013-04-29 20:53:00,75.9,15.4,29.64,West,263,1.0,1.0,10,0.00,,,0.00,Wunderground v.1.15,2013-04-30 02:53:00,
2013-04-29 20:58:00,75.5,15.1,29.64,WNW,284,1.0,1.0,10,0.00,,,0.00,Wunderground v.1.15,2013-04-30 02:58:00,
2013-04-29 21:08:00,74.6,14.4,29.65,North,349,1.0,1.0,10,0.00,,,0.00,Wunderground v.1.15,2013-04-30 03:08:00,
2013-04-29 21:13:00,74.1,14.0,29.64,WNW,288,0.0,1.0,10,0.00,,,0.00,Wunderground v.1.15,2013-04-30 03:13:00,
2013-04-29 21:23:00,73.4,15.6,29.64,NNW,345,0.0,2.0,11,0.00,,,0.00,Wunderground v.1.15,2013-04-30 03:23:00,
2013-04-29 21:28:00,73.1,15.4,29.65,NW,316,0.0,0.0,11,0.00,,,0.00,Wunderground v.1.15,2013-04-30 03:28:00,
2013-04-29 21:38:00,71.5,16.2,29.65,SSW,194,0.0,0.0,12,0.00,,,0.00,Wunderground v.1.15,2013-04-30 03:38:00,
2013-04-29 21:48:00,69.9,14.9,29.65,SE,132,0.0,0.0,12,0.00,,,0.00,Wunderground v.1.15,2013-04-30 03:48:00,
2013-04-29 21:53:00,69.2,17.9,29.65,SE,132,0.0,0.0,14,0.00,,,0.00,Wunderground v.1.15,2013-04-30 03:53:00,
2013-04-29 21:58:00,68.7,15.8,29.65,SE,132,0.0,0.0,13,0.00,,,0.00,Wunderground v.1.15,2013-04-30 03:58:00,
2013-04-29 22:03:00,68.2,20.2,29.66,SE,133,0.0,0.0,16,0.00,,,0.00,Wunderground v.1.15,2013-04-30 04:03:00,
2013-04-29 22:08:00,67.7,16.7,29.66,WNW,283,0.0,0.0,14,0.00,,,0.00,Wunderground v.1.15,2013-04-30 04:08:00,
2013-04-29 22:13:00,67.8,18.4,29.66,North,1,0.0,2.0,15,0.00,,,0.00,Wunderground v.1.15,2013-04-30 04:13:00,
2013-04-29 22:18:00,68.8,17.6,29.66,NNW,342,1.0,1.0,14,0.00,,,0.00,Wunderground v.1.15,2013-04-30 04:18:00,
2013-04-29 22:23:00,69.2,17.9,29.65,North,350,1.0,1.0,14,0.00,,,0.00,Wunderground v.1.15,2013-04-30 04:23:00,
2013-04-29 22:33:00,68.5,19.0,29.65,West,273,0.0,0.0,15,0.00,,,0.00,Wunderground v.1.15,2013-04-30 04:33:00,
2013-04-29 22:43:00,67.5,18.2,29.65,West,274,0.0,0.0,15,0.00,,,0.00,Wunderground v.1.15,2013-04-30 04:43:00,
2013-04-29 22:48:00,67.1,16.3,29.65,West,276,0.0,0.0,14,0.00,,,0.00,Wunderground v.1.15,2013-04-30 04:48:00,
2013-04-29 22:58:00,67.1,17.8,29.65,ENE,62,0.0,0.0,15,0.00,,,0.00,Wunderground v.1.15,2013-04-30 04:58:00,
2013-04-29 23:08:00,65.8,16.8,29.65,ENE,64,0.0,0.0,15,0.00,,,0.00,Wunderground v.1.15,2013-04-30 05:08:00,
2013-04-29 23:18:00,65.9,18.4,29.65,ENE,64,0.0,0.0,16,0.00,,,0.00,Wunderground v.1.15,2013-04-30 05:18:00,
2013-04-29 23:23:00,65.8,18.3,29.65,ESE,120,0.0,0.0,16,0.00,,,0.00,Wunderground v.1.15,2013-04-30 05:23:00,
2013-04-29 23:33:00,64.4,19.9,29.65,NNW,348,0.0,0.0,18,0.00,,,0.00,Wunderground v.1.15,2013-04-30 05:33:00,
2013-04-29 23:38:00,64.1,18.3,29.65,North,1,0.0,0.0,17,0.00,,,0.00,Wunderground v.1.15,2013-04-30 05:38:00,
2013-04-29 23:48:00,63.8,18.1,29.66,North,360,0.0,0.0,17,0.00,,,0.00,Wunderground v.1.15,2013-04-30 05:48:00,
2013-04-29 23:58:00,63.7,19.3,29.66,NNE,23,0.0,0.0,18,0.00,,,0.00,Wunderground v.1.15,2013-04-30 05:58:00,